createdAt,value
2022-09-27T00:00:11.709Z,241.90
2022-09-27T00:01:11.775Z,240.90
2022-09-27T00:02:11.794Z,252.30
2022-09-27T00:03:11.789Z,227.60
2022-09-27T00:04:11.675Z,243.70
2022-09-27T00:05:11.662Z,256.40
2022-09-27T00:06:11.642Z,246.60
2022-09-27T00:07:11.673Z,255.00
2022-09-27T00:08:11.621Z,253.90
2022-09-27T00:09:11.612Z,242.30
2022-09-27T00:10:11.605Z,241.80
2022-09-27T00:11:11.580Z,246.60
2022-09-27T00:12:11.723Z,241.00
2022-09-27T00:13:11.558Z,237.10
2022-09-27T00:14:11.543Z,230.40
2022-09-27T00:15:11.523Z,220.50
2022-09-27T00:16:11.572Z,213.40
2022-09-27T00:17:11.544Z,225.70
2022-09-27T00:18:11.480Z,215.90
2022-09-27T00:19:11.473Z,214.80
2022-09-27T00:20:11.476Z,215.10
2022-09-27T00:21:11.465Z,213.10
2022-09-27T00:22:11.499Z,223.30
2022-09-27T00:23:11.435Z,212.90
2022-09-27T00:24:11.449Z,213.80
2022-09-27T00:25:11.429Z,222.30
2022-09-27T00:26:11.425Z,221.80
2022-09-27T00:27:11.457Z,219.10
2022-09-27T00:28:11.385Z,221.60
2022-09-27T00:29:11.382Z,219.10
2022-09-27T00:30:11.352Z,213.70
2022-09-27T00:31:11.398Z,225.10
2022-09-27T00:32:11.397Z,222.40
2022-09-27T00:33:11.340Z,220.30
2022-09-27T00:34:11.326Z,227.60
2022-09-27T00:35:11.302Z,214.00
2022-09-27T00:36:11.305Z,232.10
2022-09-27T00:37:11.336Z,220.70
2022-09-27T00:38:11.281Z,232.40
2022-09-27T00:39:11.294Z,216.80
2022-09-27T00:40:13.175Z,234.90
2022-09-27T00:41:11.302Z,233.00
2022-09-27T00:42:11.273Z,233.50
2022-09-27T00:43:11.217Z,222.30
2022-09-27T00:44:11.213Z,231.50
2022-09-27T00:45:11.181Z,239.30
2022-09-27T00:46:11.249Z,233.80
2022-09-27T00:47:11.218Z,233.50
2022-09-27T00:48:11.156Z,238.00
2022-09-27T00:49:11.141Z,235.50
2022-09-27T00:50:11.131Z,229.40
2022-09-27T00:51:11.126Z,231.50
2022-09-27T00:52:11.156Z,229.20
2022-09-27T00:53:11.102Z,237.20
2022-09-27T00:54:11.107Z,228.20
2022-09-27T00:55:11.084Z,238.00
2022-09-27T00:56:11.093Z,231.50
2022-09-27T00:57:11.107Z,241.90
2022-09-27T00:58:11.045Z,237.20
2022-09-27T00:59:11.140Z,237.20
2022-09-27T01:00:11.028Z,238.80
2022-09-27T01:01:11.051Z,235.20
2022-09-27T01:02:11.078Z,231.90
2022-09-27T01:03:10.981Z,242.70
2022-09-27T01:04:10.983Z,230.60
2022-09-27T01:05:10.959Z,230.40
2022-09-27T01:06:10.978Z,233.80
2022-09-27T01:07:10.996Z,233.20
2022-09-27T01:08:10.939Z,234.50
2022-09-27T01:09:11.072Z,239.40
2022-09-27T01:10:10.920Z,236.60
2022-09-27T01:11:10.901Z,234.60
2022-09-27T01:12:10.930Z,239.10
2022-09-27T01:13:10.883Z,241.20
2022-09-27T01:14:10.871Z,244.10
2022-09-27T01:15:10.868Z,234.20
2022-09-27T01:16:10.879Z,238.80
2022-09-27T01:17:10.874Z,236.60
2022-09-27T01:18:10.813Z,231.20
2022-09-27T01:19:10.845Z,246.20
2022-09-27T01:20:10.781Z,240.00
2022-09-27T01:21:10.777Z,240.20
2022-09-27T01:22:10.802Z,237.80
2022-09-27T01:23:10.764Z,239.60
2022-09-27T01:24:10.783Z,236.50
2022-09-27T01:25:10.733Z,234.40
2022-09-27T01:26:10.741Z,239.00
2022-09-27T01:27:10.768Z,237.90
2022-09-27T01:28:10.697Z,240.90
2022-09-27T01:29:10.759Z,230.60
2022-09-27T01:30:10.676Z,233.70
2022-09-27T01:31:10.723Z,238.30
2022-09-27T01:32:10.717Z,232.90
2022-09-27T01:33:10.669Z,224.40
2022-09-27T01:34:10.628Z,224.00
2022-09-27T01:35:10.628Z,230.30
2022-09-27T01:36:10.620Z,229.70
2022-09-27T01:37:10.660Z,236.60
2022-09-27T01:38:10.605Z,233.60
2022-09-27T01:39:10.623Z,225.20
2022-09-27T01:40:10.584Z,237.80
2022-09-27T01:41:10.569Z,235.00
2022-09-27T01:42:12.949Z,234.70
2022-09-27T01:43:10.540Z,237.00
2022-09-27T01:44:10.526Z,227.50
2022-09-27T01:45:10.508Z,236.30
2022-09-27T01:46:10.560Z,234.40
2022-09-27T01:47:10.530Z,248.40
2022-09-27T01:48:10.478Z,239.20
2022-09-27T01:49:10.486Z,238.80
2022-09-27T01:50:10.441Z,239.70
2022-09-27T01:51:10.438Z,239.00
2022-09-27T01:52:10.468Z,205.70
2022-09-27T01:53:10.438Z,193.40
2022-09-27T01:54:10.394Z,213.10
2022-09-27T01:55:10.403Z,212.00
2022-09-27T01:56:10.398Z,208.70
2022-09-27T01:57:10.431Z,211.70
2022-09-27T01:58:10.380Z,199.40
2022-09-27T01:59:10.416Z,216.00
2022-09-27T02:00:10.331Z,240.90
2022-09-27T02:01:10.391Z,203.50
2022-09-27T02:02:10.437Z,198.90
2022-09-27T02:03:10.330Z,203.90
2022-09-27T02:04:10.297Z,199.20
2022-09-27T02:05:10.302Z,209.00
2022-09-27T02:06:12.549Z,198.20
2022-09-27T02:07:10.320Z,188.40
2022-09-27T02:08:10.240Z,200.30
2022-09-27T02:09:10.306Z,212.30
2022-09-27T02:10:10.244Z,208.80
2022-09-27T02:11:10.225Z,192.70
2022-09-27T02:12:10.249Z,190.60
2022-09-27T02:13:10.196Z,206.00
2022-09-27T02:14:10.198Z,208.00
2022-09-27T02:15:10.169Z,188.80
2022-09-27T02:16:10.191Z,193.90
2022-09-27T02:17:10.194Z,176.90
2022-09-27T02:18:10.140Z,178.80
2022-09-27T02:19:10.218Z,170.60
2022-09-27T02:20:10.103Z,174.40
2022-09-27T02:21:10.088Z,179.70
2022-09-27T02:22:10.120Z,179.10
2022-09-27T02:23:10.084Z,170.10
2022-09-27T02:24:10.083Z,175.80
2022-09-27T02:25:10.060Z,165.80
2022-09-27T02:26:10.057Z,172.10
2022-09-27T02:27:10.096Z,179.80
2022-09-27T02:28:10.040Z,170.30
2022-09-27T02:29:10.042Z,160.40
2022-09-27T02:30:09.991Z,179.80
2022-09-27T02:31:10.113Z,169.80
2022-09-27T02:32:10.031Z,168.40
2022-09-27T02:33:09.978Z,168.10
2022-09-27T02:34:09.963Z,166.10
2022-09-27T02:35:09.963Z,191.00
2022-09-27T02:36:09.944Z,189.10
2022-09-27T02:37:09.976Z,191.00
2022-09-27T02:38:09.925Z,185.20
2022-09-27T02:39:09.895Z,185.20
2022-09-27T02:40:09.896Z,197.60
2022-09-27T02:41:09.888Z,191.50
2022-09-27T02:42:09.913Z,194.80
2022-09-27T02:43:09.858Z,172.20
2022-09-27T02:44:09.848Z,186.70
2022-09-27T02:45:09.831Z,181.70
2022-09-27T02:46:09.888Z,204.00
2022-09-27T02:47:09.852Z,148.60
2022-09-27T02:48:09.795Z,153.60
2022-09-27T02:49:09.799Z,151.60
2022-09-27T02:50:09.770Z,157.60
2022-09-27T02:51:09.756Z,192.80
2022-09-27T02:52:09.785Z,175.20
2022-09-27T02:53:09.742Z,185.70
2022-09-27T02:54:09.759Z,172.50
2022-09-27T02:55:09.721Z,172.10
2022-09-27T02:56:09.718Z,176.30
2022-09-27T02:57:09.763Z,172.60
2022-09-27T02:58:09.693Z,158.30
2022-09-27T02:59:09.734Z,152.60
2022-09-27T03:00:09.661Z,152.30
2022-09-27T03:01:09.693Z,157.00
2022-09-27T03:02:13.376Z,176.50
2022-09-27T03:03:09.703Z,192.70
2022-09-27T03:04:09.614Z,164.00
2022-09-27T03:05:09.620Z,165.80
2022-09-27T03:06:09.593Z,207.80
2022-09-27T03:07:09.633Z,204.70
2022-09-27T03:08:09.580Z,229.40
2022-09-27T03:09:09.561Z,251.10
2022-09-27T03:10:09.554Z,235.10
2022-09-27T03:11:09.533Z,239.20
2022-09-27T03:12:09.573Z,250.30
2022-09-27T03:13:09.525Z,236.40
2022-09-27T03:14:09.601Z,239.70
2022-09-27T03:15:09.497Z,260.60
2022-09-27T03:16:09.477Z,255.60
2022-09-27T03:17:09.648Z,249.80
2022-09-27T03:18:09.454Z,234.50
2022-09-27T03:19:09.457Z,267.00
2022-09-27T03:20:09.416Z,217.70
2022-09-27T03:21:09.418Z,247.20
2022-09-27T03:22:09.452Z,228.20
2022-09-27T03:23:09.398Z,284.50
2022-09-27T03:24:09.393Z,272.20
2022-09-27T03:25:09.383Z,263.10
2022-09-27T03:26:12.856Z,286.40
2022-09-27T03:27:09.421Z,262.90
2022-09-27T03:28:09.358Z,290.20
2022-09-27T03:29:09.350Z,279.50
2022-09-27T03:30:09.338Z,269.40
2022-09-27T03:31:09.371Z,234.50
2022-09-27T03:32:09.347Z,235.60
2022-09-27T03:33:09.308Z,187.60
2022-09-27T03:34:09.280Z,203.50
2022-09-27T03:35:09.286Z,174.30
2022-09-27T03:36:09.238Z,182.90
2022-09-27T03:37:09.296Z,190.40
2022-09-27T03:38:09.233Z,172.60
2022-09-27T03:39:09.251Z,167.20
2022-09-27T03:40:09.230Z,175.40
2022-09-27T03:41:09.202Z,161.40
2022-09-27T03:42:09.243Z,148.10
2022-09-27T03:43:09.177Z,168.50
2022-09-27T03:44:09.178Z,161.60
2022-09-27T03:45:09.154Z,139.40
2022-09-27T03:46:09.192Z,145.10
2022-09-27T03:47:09.179Z,168.90
2022-09-27T03:48:09.112Z,142.00
2022-09-27T03:49:09.186Z,135.00
2022-09-27T03:50:09.094Z,134.00
2022-09-27T03:51:09.091Z,128.00
2022-09-27T03:52:09.130Z,136.10
2022-09-27T03:53:09.060Z,135.90
2022-09-27T03:54:09.060Z,132.80
2022-09-27T03:55:09.038Z,133.50
2022-09-27T03:56:09.031Z,149.70
2022-09-27T03:57:09.074Z,160.70
2022-09-27T03:58:09.009Z,171.30
2022-09-27T03:59:09.004Z,152.10
2022-09-27T04:00:09.065Z,152.80
2022-09-27T04:01:09.015Z,161.60
2022-09-27T04:02:09.020Z,146.70
2022-09-27T04:03:08.964Z,147.00
2022-09-27T04:04:11.191Z,146.60
2022-09-27T04:05:08.946Z,148.10
2022-09-27T04:06:08.923Z,153.40
2022-09-27T04:07:08.964Z,174.20
2022-09-27T04:08:08.896Z,181.50
2022-09-27T04:09:08.945Z,193.40
2022-09-27T04:10:08.876Z,182.70
2022-09-27T04:11:08.863Z,170.30
2022-09-27T04:12:08.888Z,171.30
2022-09-27T04:13:08.885Z,159.50
2022-09-27T04:14:08.847Z,142.80
2022-09-27T04:15:08.830Z,140.20
2022-09-27T04:16:08.821Z,142.20
2022-09-27T04:17:08.909Z,153.40
2022-09-27T04:18:08.782Z,151.00
2022-09-27T04:19:08.873Z,153.10
2022-09-27T04:20:08.761Z,153.80
2022-09-27T04:21:08.773Z,139.60
2022-09-27T04:22:08.760Z,148.10
2022-09-27T04:23:08.719Z,129.90
2022-09-27T04:24:08.738Z,138.90
2022-09-27T04:25:08.706Z,166.10
2022-09-27T04:26:08.705Z,171.90
2022-09-27T04:27:08.741Z,150.40
2022-09-27T04:28:08.678Z,136.40
2022-09-27T04:29:08.718Z,140.30
2022-09-27T04:30:08.656Z,166.10
2022-09-27T04:31:08.715Z,159.20
2022-09-27T04:32:08.667Z,148.50
2022-09-27T04:33:08.635Z,148.10
2022-09-27T04:34:08.608Z,158.90
2022-09-27T04:35:08.596Z,154.40
2022-09-27T04:36:08.585Z,146.60
2022-09-27T04:37:08.624Z,178.00
2022-09-27T04:38:08.560Z,183.80
2022-09-27T04:39:08.640Z,188.00
2022-09-27T04:40:08.540Z,193.40
2022-09-27T04:41:08.525Z,186.20
2022-09-27T04:42:08.551Z,193.20
2022-09-27T04:43:08.500Z,177.80
2022-09-27T04:44:08.503Z,164.70
2022-09-27T04:45:08.500Z,187.80
2022-09-27T04:46:08.564Z,195.70
2022-09-27T04:47:08.540Z,198.40
2022-09-27T04:48:08.447Z,196.10
2022-09-27T04:49:08.536Z,221.10
2022-09-27T04:50:08.418Z,221.30
2022-09-27T04:51:08.434Z,219.60
2022-09-27T04:52:08.427Z,232.80
2022-09-27T04:53:08.370Z,249.30
2022-09-27T04:54:08.372Z,261.80
2022-09-27T04:55:08.364Z,248.30
2022-09-27T04:56:08.355Z,231.10
2022-09-27T04:57:08.391Z,241.40
2022-09-27T04:58:08.336Z,232.50
2022-09-27T04:59:09.894Z,258.90
2022-09-27T05:00:08.327Z,255.00
2022-09-27T05:01:08.331Z,268.80
2022-09-27T05:02:08.386Z,254.30
2022-09-27T05:03:08.282Z,258.10
2022-09-27T05:04:08.253Z,263.90
2022-09-27T05:05:08.265Z,261.30
2022-09-27T05:06:08.234Z,240.30
2022-09-27T05:07:08.299Z,221.80
2022-09-27T05:08:08.223Z,203.00
2022-09-27T05:09:08.253Z,185.20
2022-09-27T05:10:08.232Z,164.50
2022-09-27T05:11:08.184Z,156.70
2022-09-27T05:12:08.202Z,149.60
2022-09-27T05:13:08.174Z,146.90
2022-09-27T05:14:08.174Z,150.00
2022-09-27T05:15:08.143Z,144.80
2022-09-27T05:16:08.155Z,145.80
2022-09-27T05:17:08.208Z,141.90
2022-09-27T05:18:08.100Z,143.50
2022-09-27T05:19:08.093Z,151.80
2022-09-27T05:20:08.077Z,142.40
2022-09-27T05:21:08.082Z,151.70
2022-09-27T05:22:08.093Z,168.30
2022-09-27T05:23:08.036Z,190.30
2022-09-27T05:24:08.022Z,227.10
2022-09-27T05:25:08.011Z,240.80
2022-09-27T05:26:08.022Z,245.80
2022-09-27T05:27:08.003Z,271.60
2022-09-27T05:28:08.056Z,281.80
2022-09-27T05:29:08.062Z,291.90
2022-09-27T05:30:07.993Z,297.70
2022-09-27T05:31:07.977Z,296.90
2022-09-27T05:32:07.971Z,301.10
2022-09-27T05:33:07.999Z,291.80
2022-09-27T05:34:07.925Z,288.60
2022-09-27T05:35:07.912Z,266.80
2022-09-27T05:36:07.921Z,259.20
2022-09-27T05:37:07.909Z,247.40
2022-09-27T05:38:07.938Z,234.30
2022-09-27T05:39:07.878Z,239.10
2022-09-27T05:40:22.380Z,233.40
2022-09-27T05:41:08.911Z,230.40
2022-09-27T05:42:07.837Z,224.50
2022-09-27T05:43:07.868Z,217.40
2022-09-27T05:44:07.827Z,213.30
2022-09-27T05:45:07.810Z,203.90
2022-09-27T05:46:07.847Z,211.70
2022-09-27T05:47:07.795Z,198.40
2022-09-27T05:48:07.829Z,193.60
2022-09-27T05:49:07.751Z,192.90
2022-09-27T05:50:07.746Z,176.30
2022-09-27T05:51:07.745Z,169.00
2022-09-27T05:52:10.073Z,171.20
2022-09-27T05:53:07.743Z,175.20
2022-09-27T05:54:07.693Z,181.40
2022-09-27T05:55:07.715Z,185.60
2022-09-27T05:56:07.693Z,171.50
2022-09-27T05:57:07.680Z,171.50
2022-09-27T05:58:07.690Z,165.40
2022-09-27T05:59:07.652Z,173.20
2022-09-27T06:00:07.666Z,172.70
2022-09-27T06:01:07.614Z,177.10
2022-09-27T06:02:07.714Z,186.60
2022-09-27T06:03:07.696Z,194.50
2022-09-27T06:04:07.596Z,223.20
2022-09-27T06:05:07.576Z,241.00
2022-09-27T06:06:07.576Z,251.70
2022-09-27T06:07:07.555Z,270.70
2022-09-27T06:08:07.605Z,284.60
2022-09-27T06:09:07.534Z,280.50
2022-09-27T06:10:07.530Z,293.50
2022-09-27T06:11:07.513Z,305.00
2022-09-27T06:12:07.497Z,309.30
2022-09-27T06:13:07.544Z,301.40
2022-09-27T06:14:07.481Z,295.00
2022-09-27T06:15:07.450Z,309.20
2022-09-27T06:16:07.457Z,315.90
2022-09-27T06:17:07.435Z,316.20
2022-09-27T06:18:07.469Z,309.70
2022-09-27T06:19:07.420Z,309.10
2022-09-27T06:20:07.414Z,293.50
2022-09-27T06:21:07.389Z,285.20
2022-09-27T06:22:07.437Z,274.90
2022-09-27T06:23:07.361Z,278.50
2022-09-27T06:24:07.347Z,260.40
2022-09-27T06:25:07.336Z,243.50
2022-09-27T06:26:07.337Z,250.00
2022-09-27T06:27:07.359Z,252.90
2022-09-27T06:28:07.329Z,259.90
2022-09-27T06:29:07.317Z,257.20
2022-09-27T06:30:07.294Z,279.00
2022-09-27T06:31:07.295Z,284.20
2022-09-27T06:32:07.306Z,282.70
2022-09-27T06:33:07.266Z,287.30
2022-09-27T06:34:07.271Z,278.40
2022-09-27T06:35:07.231Z,266.10
2022-09-27T06:36:07.347Z,261.50
2022-09-27T06:37:07.289Z,256.00
2022-09-27T06:38:07.229Z,251.60
2022-09-27T06:39:07.195Z,253.90
2022-09-27T06:40:07.214Z,250.90
2022-09-27T06:41:07.200Z,245.30
2022-09-27T06:42:07.153Z,242.60
2022-09-27T06:43:07.185Z,241.30
2022-09-27T06:44:07.142Z,237.60
2022-09-27T06:45:07.106Z,242.90
2022-09-27T06:46:07.191Z,239.40
2022-09-27T06:47:07.093Z,246.10
2022-09-27T06:48:07.131Z,242.00
2022-09-27T06:49:07.072Z,249.50
2022-09-27T06:50:07.083Z,250.80
2022-09-27T06:51:07.052Z,250.20
2022-09-27T06:52:07.065Z,259.30
2022-09-27T06:53:07.099Z,257.30
2022-09-27T06:54:07.076Z,253.50
2022-09-27T06:55:07.015Z,252.90
2022-09-27T06:56:07.023Z,252.30
2022-09-27T06:57:07.001Z,254.30
2022-09-27T06:58:07.037Z,254.00
2022-09-27T06:59:06.974Z,246.00
2022-09-27T07:00:06.962Z,237.50
2022-09-27T07:01:07.035Z,243.00
2022-09-27T07:02:07.038Z,257.70
2022-09-27T07:03:06.966Z,272.40
2022-09-27T07:04:06.933Z,278.10
2022-09-27T07:05:06.908Z,274.10
2022-09-27T07:06:06.898Z,278.00
2022-09-27T07:07:06.972Z,279.00
2022-09-27T07:08:06.915Z,276.80
2022-09-27T07:09:06.864Z,279.40
2022-09-27T07:10:09.891Z,274.90
2022-09-27T07:11:06.843Z,271.40
2022-09-27T07:12:06.838Z,272.80
2022-09-27T07:13:06.835Z,273.80
2022-09-27T07:14:06.793Z,275.20
2022-09-27T07:15:06.775Z,270.60
2022-09-27T07:16:06.798Z,273.00
2022-09-27T07:17:06.789Z,269.60
2022-09-27T07:18:06.801Z,281.20
2022-09-27T07:19:06.738Z,269.60
2022-09-27T07:20:06.754Z,280.10
2022-09-27T07:21:06.711Z,277.60
2022-09-27T07:22:06.713Z,277.30
2022-09-27T07:23:06.750Z,285.50
2022-09-27T07:24:06.673Z,278.70
2022-09-27T07:25:06.661Z,281.10
2022-09-27T07:26:06.682Z,276.60
2022-09-27T07:27:06.641Z,269.80
2022-09-27T07:28:06.686Z,285.70
2022-09-27T07:29:06.640Z,278.10
2022-09-27T07:30:06.616Z,285.70
2022-09-27T07:31:06.658Z,269.10
2022-09-27T07:32:06.575Z,277.30
2022-09-27T07:33:06.639Z,290.60
2022-09-27T07:34:06.596Z,293.50
2022-09-27T07:35:06.603Z,289.60
2022-09-27T07:36:06.558Z,295.20
2022-09-27T07:37:06.547Z,298.70
2022-09-27T07:38:06.608Z,312.00
2022-09-27T07:39:06.525Z,317.80
2022-09-27T07:40:06.520Z,322.30
2022-09-27T07:41:06.489Z,315.10
2022-09-27T07:42:06.478Z,301.70
2022-09-27T07:43:06.491Z,293.60
2022-09-27T07:44:06.474Z,301.50
2022-09-27T07:45:09.141Z,308.60
2022-09-27T07:46:06.482Z,310.10
2022-09-27T07:47:06.433Z,308.40
2022-09-27T07:48:06.466Z,314.20
2022-09-27T07:49:06.423Z,309.50
2022-09-27T07:50:06.409Z,297.10
2022-09-27T07:51:06.386Z,282.50
2022-09-27T07:52:06.371Z,270.70
2022-09-27T07:53:06.402Z,264.00
2022-09-27T07:54:08.738Z,248.70
2022-09-27T07:55:06.329Z,223.10
2022-09-27T07:56:06.368Z,198.90
2022-09-27T07:57:06.319Z,195.30
2022-09-27T07:58:06.359Z,198.30
2022-09-27T07:59:06.294Z,216.10
2022-09-27T08:00:06.284Z,209.40
2022-09-27T08:01:06.327Z,204.40
2022-09-27T08:02:06.270Z,144.70
2022-09-27T08:03:06.290Z,160.70
2022-09-27T08:04:06.232Z,119.00
2022-09-27T08:05:06.208Z,154.30
2022-09-27T08:06:06.218Z,121.30
2022-09-27T08:07:06.193Z,124.30
2022-09-27T08:08:06.240Z,253.70
2022-09-27T08:09:06.184Z,324.20
2022-09-27T08:10:06.184Z,59.20
2022-09-27T08:11:06.186Z,60.40
2022-09-27T08:12:06.139Z,575.00
2022-09-27T08:13:06.160Z,517.10
2022-09-27T08:14:06.121Z,481.80
2022-09-27T08:15:06.099Z,56.60
2022-09-27T08:16:06.157Z,371.30
2022-09-27T08:17:06.096Z,450.30
2022-09-27T08:18:06.135Z,136.80
2022-09-27T08:19:06.067Z,467.10
2022-09-27T08:20:06.072Z,182.90
2022-09-27T08:21:06.030Z,500.10
2022-09-27T08:22:06.043Z,284.90
2022-09-27T08:23:06.136Z,62.50
2022-09-27T08:24:06.033Z,403.50
2022-09-27T08:25:06.012Z,318.60
2022-09-27T08:26:06.012Z,241.20
2022-09-27T08:27:10.743Z,285.40
2022-09-27T08:28:07.014Z,137.10
2022-09-27T08:29:05.959Z,330.80
2022-09-27T08:30:05.946Z,243.50
2022-09-27T08:31:05.928Z,326.30
2022-09-27T08:32:05.919Z,308.40
2022-09-27T08:33:05.941Z,350.40
2022-09-27T08:34:05.932Z,360.20
2022-09-27T08:35:05.881Z,230.60
2022-09-27T08:36:05.902Z,125.10
2022-09-27T08:37:05.864Z,30.60
2022-09-27T08:38:05.941Z,202.30
2022-09-27T08:39:05.841Z,104.50
2022-09-27T08:40:05.816Z,142.80
2022-09-27T08:41:05.815Z,110.60
2022-09-27T08:42:05.800Z,73.30
2022-09-27T08:43:05.826Z,55.70
2022-09-27T08:44:05.771Z,75.20
2022-09-27T08:45:05.771Z,74.40
2022-09-27T08:46:05.770Z,105.10
2022-09-27T08:47:05.805Z,107.60
2022-09-27T08:48:05.768Z,22.20
2022-09-27T08:49:05.718Z,100.90
2022-09-27T08:50:05.827Z,76.30
2022-09-27T08:51:05.700Z,32.10
2022-09-27T08:52:05.748Z,69.70
2022-09-27T08:53:05.684Z,48.70
2022-09-27T08:54:05.710Z,56.10
2022-09-27T08:55:05.667Z,30.50
2022-09-27T08:56:05.665Z,59.40
2022-09-27T08:57:05.669Z,55.20
2022-09-27T08:58:05.616Z,65.60
2022-09-27T08:59:05.624Z,49.90
2022-09-27T09:00:05.592Z,46.70
2022-09-27T09:01:05.654Z,46.60
2022-09-27T09:02:05.672Z,41.90
2022-09-27T09:03:05.571Z,47.10
2022-09-27T09:04:05.545Z,62.40
2022-09-27T09:05:05.528Z,72.90
2022-09-27T09:06:05.521Z,84.90
2022-09-27T09:07:05.521Z,89.80
2022-09-27T09:08:05.557Z,95.90
2022-09-27T09:09:05.491Z,95.00
2022-09-27T09:10:05.475Z,82.40
2022-09-27T09:11:05.458Z,89.20
2022-09-27T09:12:05.451Z,105.60
2022-09-27T09:13:05.496Z,89.30
2022-09-27T09:14:06.772Z,90.30
2022-09-27T09:15:05.434Z,102.10
2022-09-27T09:16:05.528Z,92.00
2022-09-27T09:17:05.405Z,57.60
2022-09-27T09:18:05.465Z,14.90
2022-09-27T09:19:05.379Z,82.30
2022-09-27T09:20:05.383Z,85.70
2022-09-27T09:21:05.353Z,89.60
2022-09-27T09:22:05.360Z,29.70
2022-09-27T09:23:05.390Z,79.30
2022-09-27T09:24:05.371Z,67.80
2022-09-27T09:25:05.321Z,78.00
2022-09-27T09:26:05.318Z,61.60
2022-09-27T09:27:05.300Z,45.00
2022-09-27T09:28:05.331Z,46.30
2022-09-27T09:29:05.288Z,48.20
2022-09-27T09:30:05.254Z,46.80
2022-09-27T09:31:05.267Z,13.70
2022-09-27T09:32:05.275Z,55.30
2022-09-27T09:33:05.272Z,63.80
2022-09-27T09:34:05.197Z,47.80
2022-09-27T09:35:05.186Z,19.60
2022-09-27T09:36:05.176Z,47.40
2022-09-27T09:37:05.177Z,37.20
2022-09-27T09:38:05.209Z,30.40
2022-09-27T09:39:05.173Z,57.40
2022-09-27T09:40:08.870Z,45.20
2022-09-27T09:41:05.155Z,50.20
2022-09-27T09:42:05.141Z,47.10
2022-09-27T09:43:05.188Z,48.90
2022-09-27T09:44:05.101Z,52.40
2022-09-27T09:45:05.089Z,27.70
2022-09-27T09:46:05.109Z,40.90
2022-09-27T09:47:05.076Z,52.60
2022-09-27T09:48:05.125Z,54.60
2022-09-27T09:49:05.059Z,46.30
2022-09-27T09:50:05.031Z,58.00
2022-09-27T09:51:05.015Z,36.50
2022-09-27T09:52:08.786Z,37.80
2022-09-27T09:53:05.042Z,37.90
2022-09-27T09:54:04.995Z,38.00
2022-09-27T09:55:05.029Z,44.00
2022-09-27T09:56:04.985Z,37.40
2022-09-27T09:57:04.975Z,31.70
2022-09-27T09:58:04.999Z,44.90
2022-09-27T09:59:04.944Z,45.30
2022-09-27T10:00:04.917Z,33.80
2022-09-27T10:01:04.968Z,49.30
2022-09-27T10:02:04.968Z,42.30
2022-09-27T10:03:04.936Z,45.50
2022-09-27T10:04:04.886Z,39.00
2022-09-27T10:05:07.865Z,43.50
2022-09-27T10:06:04.836Z,393.30
2022-09-27T10:07:04.854Z,371.80
2022-09-27T10:08:04.876Z,69.60
2022-09-27T10:09:04.858Z,350.30
2022-09-27T10:10:04.816Z,999.90
2022-09-27T10:11:04.795Z,999.90
2022-09-27T10:12:04.810Z,633.10
2022-09-27T10:13:04.833Z,999.90
2022-09-27T10:14:04.778Z,858.40
2022-09-27T10:15:04.755Z,608.40
2022-09-27T10:16:04.756Z,999.90
2022-09-27T10:17:04.729Z,762.10
2022-09-27T10:18:04.771Z,555.80
2022-09-27T10:19:04.841Z,999.90
2022-09-27T10:20:04.694Z,999.90
2022-09-27T10:21:04.693Z,882.20
2022-09-27T10:22:04.673Z,999.90
2022-09-27T10:23:04.711Z,531.20
2022-09-27T10:24:04.659Z,999.90
2022-09-27T10:25:04.652Z,999.90
2022-09-27T10:26:04.633Z,999.90
2022-09-27T10:27:04.628Z,168.30
2022-09-27T10:28:04.667Z,838.50
2022-09-27T10:29:04.602Z,821.50
2022-09-27T10:30:04.608Z,712.10
2022-09-27T10:31:04.581Z,999.90
2022-09-27T10:32:04.563Z,435.90
2022-09-27T10:33:04.599Z,999.90
2022-09-27T10:34:04.517Z,343.20
2022-09-27T10:35:04.536Z,999.90
2022-09-27T10:36:04.506Z,999.90
2022-09-27T10:37:04.503Z,999.90
2022-09-27T10:38:04.559Z,999.90
2022-09-27T10:39:04.492Z,999.90
2022-09-27T10:40:04.471Z,999.90
2022-09-27T10:41:04.462Z,999.90
2022-09-27T10:42:04.462Z,999.90
2022-09-27T10:43:04.494Z,999.90
2022-09-27T10:44:04.440Z,999.90
2022-09-27T10:45:04.417Z,999.90
2022-09-27T10:46:04.445Z,999.90
2022-09-27T10:47:04.388Z,999.90
2022-09-27T10:48:04.443Z,999.90
2022-09-27T10:49:04.382Z,999.90
2022-09-27T10:50:04.357Z,999.90
2022-09-27T10:51:04.345Z,999.90
2022-09-27T10:52:04.347Z,999.90
2022-09-27T10:53:04.385Z,999.90
2022-09-27T10:54:04.363Z,999.90
2022-09-27T10:55:04.326Z,999.90
2022-09-27T10:56:04.305Z,999.90
2022-09-27T10:57:04.295Z,999.90
2022-09-27T10:58:04.318Z,999.90
2022-09-27T10:59:04.266Z,999.90
2022-09-27T11:00:04.265Z,999.90
2022-09-27T11:01:04.295Z,999.90
2022-09-27T11:02:04.245Z,999.90
2022-09-27T11:03:04.275Z,999.90
2022-09-27T11:04:04.189Z,999.90
2022-09-27T11:05:04.214Z,999.90
2022-09-27T11:06:04.175Z,869.70
2022-09-27T11:07:04.175Z,68.80
2022-09-27T11:08:04.237Z,53.80
2022-09-27T11:09:04.168Z,55.20
2022-09-27T11:10:04.142Z,91.80
2022-09-27T11:11:04.150Z,92.30
2022-09-27T11:12:04.116Z,32.90
2022-09-27T11:13:04.159Z,35.30
2022-09-27T11:14:04.095Z,21.30
2022-09-27T11:15:04.081Z,24.60
2022-09-27T11:16:04.133Z,24.10
2022-09-27T11:17:04.075Z,37.60
2022-09-27T11:18:04.078Z,50.40
2022-09-27T11:19:04.035Z,48.30
2022-09-27T11:20:04.013Z,51.90
2022-09-27T11:21:04.024Z,58.50
2022-09-27T11:22:04.007Z,50.20
2022-09-27T11:23:04.027Z,85.70
2022-09-27T11:24:03.974Z,119.40
2022-09-27T11:25:03.990Z,151.20
2022-09-27T11:26:03.952Z,166.20
2022-09-27T11:27:03.937Z,173.40
2022-09-27T11:28:03.981Z,176.00
2022-09-27T11:29:03.925Z,195.90
2022-09-27T11:30:03.911Z,170.90
2022-09-27T11:31:03.934Z,117.60
2022-09-27T11:32:03.939Z,91.00
2022-09-27T11:33:03.932Z,73.40
2022-09-27T11:34:03.855Z,69.70
2022-09-27T11:35:03.847Z,68.50
2022-09-27T11:36:03.827Z,59.20
2022-09-27T11:37:03.876Z,27.90
2022-09-27T11:38:03.817Z,34.00
2022-09-27T11:39:03.828Z,37.00
2022-09-27T11:40:03.833Z,28.50
2022-09-27T11:41:03.806Z,31.70
2022-09-27T11:42:03.833Z,26.50
2022-09-27T11:43:03.765Z,21.00
2022-09-27T11:44:03.744Z,16.60
2022-09-27T11:45:30.390Z,15.80
2022-09-27T11:46:19.164Z,18.00
2022-09-27T11:47:04.850Z,18.00
2022-09-27T11:48:03.828Z,17.50
2022-09-27T11:49:03.702Z,16.30
2022-09-27T11:50:03.686Z,17.20
2022-09-27T11:51:03.683Z,34.80
2022-09-27T11:52:03.709Z,31.00
2022-09-27T11:53:03.665Z,26.60
2022-09-27T11:54:03.651Z,41.60
2022-09-27T11:55:03.640Z,29.40
2022-09-27T11:56:03.619Z,30.90
2022-09-27T11:57:03.662Z,38.80
2022-09-27T11:58:03.610Z,28.90
2022-09-27T11:59:03.605Z,36.90
2022-09-27T12:00:03.579Z,49.90
2022-09-27T12:01:03.554Z,36.40
2022-09-27T12:02:03.706Z,33.20
2022-09-27T12:03:03.582Z,37.40
2022-09-27T12:04:03.531Z,39.80
2022-09-27T12:05:03.524Z,55.00
2022-09-27T12:06:07.320Z,61.40
2022-09-27T12:07:03.533Z,67.60
2022-09-27T12:08:03.476Z,98.20
2022-09-27T12:09:03.481Z,149.20
2022-09-27T12:10:03.461Z,194.30
2022-09-27T12:11:03.445Z,250.00
2022-09-27T12:12:03.484Z,291.90
2022-09-27T12:13:03.419Z,351.20
2022-09-27T12:14:03.418Z,316.80
2022-09-27T12:15:06.943Z,318.40
2022-09-27T12:16:03.417Z,339.60
2022-09-27T12:17:03.380Z,325.70
2022-09-27T12:18:03.400Z,307.40
2022-09-27T12:19:03.352Z,301.80
2022-09-27T12:20:03.334Z,271.70
2022-09-27T12:21:03.331Z,173.10
2022-09-27T12:22:03.338Z,95.50
2022-09-27T12:23:03.353Z,93.80
2022-09-27T12:24:03.329Z,103.40
2022-09-27T12:25:03.300Z,127.60
2022-09-27T12:26:03.259Z,179.30
2022-09-27T12:27:03.257Z,72.80
2022-09-27T12:28:03.289Z,164.00
2022-09-27T12:29:03.250Z,53.10
2022-09-27T12:30:03.232Z,39.10
2022-09-27T12:31:27.361Z,41.00
2022-09-27T12:32:04.235Z,40.30
2022-09-27T12:33:03.266Z,27.40